createdAt,value
2022-09-28T00:00:48.151Z,52.90
2022-09-28T00:05:49.933Z,53.11
2022-09-28T00:10:56.133Z,53.02
2022-09-28T00:16:05.209Z,53.05
2022-09-28T00:21:15.645Z,52.85
2022-09-28T00:26:17.430Z,52.58
2022-09-28T00:31:19.383Z,52.82
2022-09-28T00:36:21.377Z,52.94
2022-09-28T00:41:24.814Z,53.01
2022-09-28T00:46:35.544Z,52.88
2022-09-28T00:51:41.261Z,52.86
2022-09-28T00:56:45.928Z,52.89
2022-09-28T01:01:49.448Z,53.04
2022-09-28T01:06:52.311Z,53.31
2022-09-28T01:11:55.274Z,53.11
2022-09-28T01:17:30.744Z,53.13
2022-09-28T01:23:00.387Z,53.25
2022-09-28T01:28:11.809Z,53.51
2022-09-28T01:33:25.031Z,53.40
2022-09-28T01:38:47.628Z,53.52
2022-09-28T01:43:56.161Z,53.40
2022-09-28T01:49:02.069Z,53.49
2022-09-28T01:54:12.829Z,53.27
2022-09-28T01:59:22.621Z,53.19
2022-09-28T02:04:35.272Z,53.37
2022-09-28T02:09:48.833Z,53.24
2022-09-28T02:14:59.739Z,53.32
2022-09-28T02:20:01.888Z,53.25
2022-09-28T02:25:09.146Z,53.44
2022-09-28T02:30:11.577Z,53.72
2022-09-28T02:35:17.592Z,53.63
2022-09-28T02:40:29.158Z,53.57
2022-09-28T02:46:02.161Z,53.31
2022-09-28T02:51:13.555Z,53.36
2022-09-28T02:56:31.305Z,53.60
2022-09-28T03:01:33.115Z,53.54
2022-09-28T03:06:43.720Z,53.48
2022-09-28T03:11:51.123Z,53.62
2022-09-28T03:16:53.595Z,53.08
2022-09-28T03:21:55.763Z,53.10
2022-09-28T03:26:57.615Z,52.84
2022-09-28T03:31:59.595Z,52.83
2022-09-28T03:37:01.641Z,52.63
2022-09-28T03:42:03.664Z,52.67
2022-09-28T03:47:09.579Z,52.66
2022-09-28T03:52:12.747Z,52.89
2022-09-28T03:57:14.549Z,53.37
2022-09-28T04:02:16.608Z,53.06
2022-09-28T04:07:18.432Z,53.71
2022-09-28T04:12:20.533Z,53.58
2022-09-28T04:17:23.139Z,53.15
2022-09-28T04:22:25.083Z,53.06
2022-09-28T04:27:45.479Z,52.90
2022-09-28T04:32:47.887Z,52.76
2022-09-28T04:37:49.826Z,52.63
2022-09-28T04:42:55.698Z,52.85
2022-09-28T04:47:58.158Z,52.74
2022-09-28T04:53:23.809Z,52.71
2022-09-28T04:58:26.156Z,52.77
2022-09-28T05:03:28.747Z,52.62
2022-09-28T05:08:43.648Z,52.91
2022-09-28T05:13:45.974Z,52.68
2022-09-28T05:18:55.174Z,52.58
2022-09-28T05:23:58.515Z,52.67
2022-09-28T05:29:01.265Z,52.49
2022-09-28T05:34:21.621Z,52.32
2022-09-28T05:39:23.596Z,52.32
2022-09-28T05:44:25.988Z,52.65
2022-09-28T05:49:31.704Z,52.45
2022-09-28T05:54:35.517Z,52.45
2022-09-28T05:59:37.481Z,52.57
2022-09-28T06:04:40.130Z,52.71
2022-09-28T06:09:42.015Z,52.54
2022-09-28T06:14:51.944Z,52.50
2022-09-28T06:19:53.866Z,52.38
2022-09-28T06:25:10.449Z,52.71
2022-09-28T06:30:14.126Z,52.64
2022-09-28T06:35:16.207Z,52.60
2022-09-28T06:40:19.197Z,52.63
2022-09-28T06:45:24.578Z,52.83
2022-09-28T06:50:45.078Z,52.74
2022-09-28T06:56:03.539Z,52.58
2022-09-28T07:01:05.873Z,52.68
2022-09-28T07:06:18.615Z,52.67
2022-09-28T07:11:44.838Z,52.85
2022-09-28T07:17:13.536Z,52.68
2022-09-28T07:22:19.402Z,52.84
2022-09-28T07:27:26.802Z,52.58
2022-09-28T07:32:45.810Z,52.75
2022-09-28T07:38:00.470Z,52.79
2022-09-28T07:43:06.950Z,52.70
2022-09-28T07:48:09.089Z,52.51
2022-09-28T07:53:43.349Z,52.62
2022-09-28T07:59:05.410Z,52.56
2022-09-28T08:04:25.691Z,52.66
2022-09-28T08:09:27.543Z,52.46
2022-09-28T08:15:01.369Z,52.76
2022-09-28T08:21:00.549Z,52.73
2022-09-28T08:26:03.278Z,53.22
2022-09-28T08:31:07.511Z,53.84
2022-09-28T08:36:35.178Z,53.86
2022-09-28T08:42:19.154Z,53.90
2022-09-28T08:48:29.686Z,53.65
2022-09-28T08:54:20.680Z,54.02
2022-09-28T08:59:43.749Z,54.02
2022-09-28T09:04:52.956Z,53.89
2022-09-28T09:10:25.081Z,54.28
2022-09-28T09:15:48.262Z,54.20
2022-09-28T09:21:15.637Z,54.13
2022-09-28T09:26:24.681Z,53.77
2022-09-28T09:31:53.091Z,53.83
2022-09-28T09:36:57.990Z,54.04
2022-09-28T09:43:03.530Z,54.05
2022-09-28T09:48:45.791Z,54.05
2022-09-28T09:53:53.276Z,54.33
2022-09-28T09:59:02.877Z,54.43
2022-09-28T10:04:26.881Z,54.41
2022-09-28T10:09:46.012Z,54.40
2022-09-28T10:15:07.959Z,54.44
2022-09-28T10:20:23.142Z,54.56
2022-09-28T10:25:44.626Z,54.70
2022-09-28T10:30:46.979Z,54.71
2022-09-28T10:35:49.270Z,54.66
2022-09-28T10:40:56.999Z,54.80
2022-09-28T10:46:14.243Z,54.86
2022-09-28T10:51:39.306Z,54.88
2022-09-28T10:56:48.050Z,54.65
2022-09-28T11:02:21.805Z,54.94
2022-09-28T11:07:32.535Z,54.75
2022-09-28T11:12:43.183Z,55.63
2022-09-28T11:17:45.478Z,55.65
2022-09-28T11:22:51.684Z,56.39
2022-09-28T11:27:59.312Z,56.49
2022-09-28T11:33:05.368Z,56.72
2022-09-28T11:38:41.002Z,56.37
2022-09-28T11:44:33.711Z,56.66
2022-09-28T11:49:50.289Z,56.60
2022-09-28T11:55:01.324Z,56.38
2022-09-28T12:00:13.265Z,56.83
2022-09-28T12:05:30.547Z,56.83
2022-09-28T12:10:39.405Z,56.94
2022-09-28T12:16:23.049Z,57.40
2022-09-28T12:21:40.873Z,56.87
2022-09-28T12:26:55.811Z,55.70
2022-09-28T12:32:18.707Z,55.14
2022-09-28T12:37:45.163Z,55.00
2022-09-28T12:43:05.754Z,55.19
2022-09-28T12:48:13.499Z,55.32
2022-09-28T12:53:41.785Z,55.52
2022-09-28T12:58:53.790Z,55.23
2022-09-28T13:03:58.391Z,55.37
2022-09-28T13:09:34.876Z,55.65
2022-09-28T13:15:05.613Z,55.88
2022-09-28T13:20:25.768Z,55.92
2022-09-28T13:25:31.288Z,55.67
2022-09-28T13:30:39.001Z,55.33
2022-09-28T13:35:44.414Z,55.48
2022-09-28T13:41:04.743Z,54.88
2022-09-28T13:46:20.474Z,54.75
2022-09-28T13:51:49.992Z,54.43
2022-09-28T13:57:09.994Z,54.34
2022-09-28T14:02:21.151Z,54.11
2022-09-28T14:12:45.298Z,53.97
2022-09-28T14:17:57.782Z,53.90
2022-09-28T14:23:27.344Z,54.19
2022-09-28T14:28:38.123Z,54.09
2022-09-28T14:33:42.809Z,53.92
2022-09-28T14:39:08.619Z,53.87
2022-09-28T14:44:12.858Z,54.63
2022-09-28T14:49:17.625Z,55.06
2022-09-28T14:54:25.606Z,54.98
2022-09-28T14:59:30.748Z,54.86
2022-09-28T15:04:39.405Z,54.46
2022-09-28T15:09:41.700Z,54.35
2022-09-28T15:14:47.820Z,54.23
2022-09-28T15:20:12.345Z,54.08
2022-09-28T15:25:20.609Z,53.52
2022-09-28T15:30:29.139Z,53.53
2022-09-28T15:35:31.025Z,53.65
2022-09-28T15:40:38.758Z,53.55
2022-09-28T15:45:40.718Z,53.42
2022-09-28T15:50:57.102Z,53.78
2022-09-28T15:56:05.724Z,53.46
2022-09-28T16:01:32.250Z,53.69
2022-09-28T16:06:34.315Z,53.72
2022-09-28T16:11:40.679Z,53.24
2022-09-28T16:16:51.317Z,53.59
2022-09-28T16:21:55.929Z,53.68
2022-09-28T16:27:23.200Z,53.61
2022-09-28T16:32:24.964Z,53.82
2022-09-28T16:37:31.934Z,53.83
2022-09-28T16:42:33.922Z,53.97
2022-09-28T16:47:36.079Z,54.10
2022-09-28T16:52:59.836Z,53.91
2022-09-28T16:58:04.721Z,53.56
2022-09-28T17:03:13.736Z,53.29
2022-09-28T17:08:22.298Z,53.55
2022-09-28T17:13:33.322Z,53.54
2022-09-28T17:18:39.227Z,53.53
2022-09-28T17:23:41.353Z,53.52
2022-09-28T17:28:43.146Z,53.48
2022-09-28T17:33:46.110Z,54.30
2022-09-28T17:38:49.630Z,54.45
2022-09-28T17:43:51.520Z,54.60
2022-09-28T17:48:54.360Z,54.28
2022-09-28T17:54:01.143Z,54.20
2022-09-28T17:59:06.067Z,54.11
2022-09-28T18:04:23.092Z,54.29
2022-09-28T18:09:34.459Z,54.05
2022-09-28T18:14:36.606Z,54.37
2022-09-28T18:19:38.808Z,54.64
2022-09-28T18:24:40.949Z,54.96
2022-09-28T18:29:43.247Z,55.51
2022-09-28T18:34:45.669Z,55.24
2022-09-28T18:39:47.817Z,54.89
2022-09-28T18:44:49.888Z,54.60
2022-09-28T18:49:52.042Z,54.79
2022-09-28T18:54:54.937Z,54.95
2022-09-28T18:59:57.207Z,54.89
2022-09-28T19:04:59.532Z,55.30
2022-09-28T19:10:01.766Z,54.96
2022-09-28T19:15:04.873Z,55.49
2022-09-28T19:20:07.395Z,55.27
2022-09-28T19:25:10.046Z,55.50
2022-09-28T19:30:12.715Z,55.25
2022-09-28T19:35:14.758Z,55.72
2022-09-28T19:40:16.718Z,55.31
2022-09-28T19:45:18.626Z,54.85
2022-09-28T19:50:20.474Z,54.82
2022-09-28T19:55:23.736Z,55.25
2022-09-28T20:00:25.762Z,55.83
2022-09-28T20:05:27.561Z,55.43
2022-09-28T20:10:29.603Z,55.35
2022-09-28T20:15:31.521Z,55.60
2022-09-28T20:20:33.373Z,55.57
2022-09-28T20:25:35.517Z,55.54
2022-09-28T20:30:37.432Z,55.63
2022-09-28T20:35:40.609Z,55.75
2022-09-28T20:40:42.472Z,56.16
2022-09-28T20:45:44.398Z,55.87
2022-09-28T20:50:46.177Z,55.34
2022-09-28T20:55:47.981Z,55.03
2022-09-28T21:00:49.797Z,55.09
2022-09-28T21:05:51.788Z,54.83
2022-09-28T21:10:54.371Z,54.53
2022-09-28T21:16:01.502Z,54.25
2022-09-28T21:21:09.334Z,54.21
2022-09-28T21:26:24.467Z,54.22
2022-09-28T21:31:29.698Z,53.96
2022-09-28T21:36:31.983Z,54.15
2022-09-28T21:41:33.869Z,53.79
2022-09-28T21:46:37.749Z,53.68
2022-09-28T21:51:39.651Z,53.78
2022-09-28T21:56:41.465Z,53.88
2022-09-28T22:01:44.376Z,53.98
2022-09-28T22:06:46.321Z,53.92
2022-09-28T22:11:49.234Z,53.84
2022-09-28T22:16:51.061Z,53.79
2022-09-28T22:21:52.875Z,53.75
2022-09-28T22:26:54.706Z,53.63
2022-09-28T22:32:02.191Z,54.24
2022-09-28T22:37:04.280Z,53.96
2022-09-28T22:42:06.178Z,55.08
2022-09-28T22:47:08.015Z,55.57
2022-09-28T22:52:09.809Z,55.26
2022-09-28T22:57:11.598Z,55.37
2022-09-28T23:02:13.421Z,55.42
2022-09-28T23:07:15.224Z,55.30
2022-09-28T23:12:17.245Z,55.59
2022-09-28T23:17:19.088Z,55.60
2022-09-28T23:22:20.905Z,55.09
2022-09-28T23:27:22.746Z,55.18
2022-09-28T23:32:28.543Z,55.59
2022-09-28T23:37:32.991Z,55.16
2022-09-28T23:42:35.578Z,56.01
2022-09-28T23:47:37.969Z,55.74
2022-09-28T23:52:39.790Z,55.66
2022-09-28T23:57:43.867Z,55.93
